sensor_id;sensor_type;location;lat;lon;timestamp;P1;durP1;ratioP1;P2;durP2;ratioP2
44366;SDS011;30086;57.660;12.000;2023-06-14T00:00:22;1999.90;;;999.90;;
44366;SDS011;30086;57.660;12.000;2023-06-14T00:02:49;1999.90;;;999.90;;
44366;SDS011;30086;57.660;12.000;2023-06-14T00:05:16;1999.90;;;999.90;;
44366;SDS011;30086;57.660;12.000;2023-06-14T00:07:43;1999.90;;;999.90;;
44366;SDS011;30086;57.660;12.000;2023-06-14T00:10:10;1999.90;;;999.90;;
44366;SDS011;30086;57.660;12.000;2023-06-14T00:12:36;1999.90;;;999.90;;
44366;SDS011;30086;57.660;12.000;2023-06-14T00:15:03;1999.90;;;999.90;;
44366;SDS011;30086;57.660;12.000;2023-06-14T00:17:29;1999.90;;;999.90;;
44366;SDS011;30086;57.660;12.000;2023-06-14T00:19:59;1999.90;;;999.90;;
44366;SDS011;30086;57.660;12.000;2023-06-14T00:22:35;1999.90;;;999.90;;
44366;SDS011;30086;57.660;12.000;2023-06-14T00:25:02;1999.90;;;999.90;;
44366;SDS011;30086;57.660;12.000;2023-06-14T00:27:28;1999.90;;;999.90;;
44366;SDS011;30086;57.660;12.000;2023-06-14T00:29:54;1999.90;;;999.90;;
44366;SDS011;30086;57.660;12.000;2023-06-14T00:32:21;1999.90;;;999.90;;
44366;SDS011;30086;57.660;12.000;2023-06-14T00:34:50;1999.90;;;999.90;;
44366;SDS011;30086;57.660;12.000;2023-06-14T00:37:17;1999.90;;;999.90;;
44366;SDS011;30086;57.660;12.000;2023-06-14T00:39:43;1999.90;;;999.90;;
44366;SDS011;30086;57.660;12.000;2023-06-14T00:42:09;1999.90;;;999.90;;
44366;SDS011;30086;57.660;12.000;2023-06-14T00:44:36;1999.90;;;999.90;;
44366;SDS011;30086;57.660;12.000;2023-06-14T00:47:02;1999.90;;;999.90;;
44366;SDS011;30086;57.660;12.000;2023-06-14T00:49:28;1999.90;;;999.90;;
44366;SDS011;30086;57.660;12.000;2023-06-14T00:51:55;1999.90;;;999.90;;
44366;SDS011;30086;57.660;12.000;2023-06-14T00:54:21;1999.90;;;999.90;;
44366;SDS011;30086;57.660;12.000;2023-06-14T00:56:47;1999.90;;;999.90;;
44366;SDS011;30086;57.660;12.000;2023-06-14T00:59:13;1999.90;;;999.90;;
44366;SDS011;30086;57.660;12.000;2023-06-14T01:01:40;1999.90;;;999.90;;
44366;SDS011;30086;57.660;12.000;2023-06-14T01:04:06;1999.90;;;999.90;;
44366;SDS011;30086;57.660;12.000;2023-06-14T01:11:37;1999.90;;;999.90;;
44366;SDS011;30086;57.660;12.000;2023-06-14T01:14:05;1999.90;;;999.90;;
44366;SDS011;30086;57.660;12.000;2023-06-14T01:16:33;1999.90;;;999.90;;
44366;SDS011;30086;57.660;12.000;2023-06-14T01:19:06;1999.90;;;999.90;;
44366;SDS011;30086;57.660;12.000;2023-06-14T01:21:37;1999.90;;;999.90;;
44366;SDS011;30086;57.660;12.000;2023-06-14T01:24:06;1999.90;;;999.90;;
44366;SDS011;30086;57.660;12.000;2023-06-14T01:26:34;1999.90;;;999.90;;
44366;SDS011;30086;57.660;12.000;2023-06-14T01:29:03;1999.90;;;999.90;;
44366;SDS011;30086;57.660;12.000;2023-06-14T01:31:29;1999.90;;;999.90;;
44366;SDS011;30086;57.660;12.000;2023-06-14T01:34:06;1999.90;;;999.90;;
44366;SDS011;30086;57.660;12.000;2023-06-14T01:36:32;1999.90;;;999.90;;
44366;SDS011;30086;57.660;12.000;2023-06-14T01:38:59;1999.90;;;999.90;;
44366;SDS011;30086;57.660;12.000;2023-06-14T01:41:27;1999.90;;;999.90;;
44366;SDS011;30086;57.660;12.000;2023-06-14T01:43:54;1999.90;;;999.90;;
44366;SDS011;30086;57.660;12.000;2023-06-14T01:46:22;1999.90;;;999.90;;
44366;SDS011;30086;57.660;12.000;2023-06-14T01:48:48;1999.90;;;999.90;;
44366;SDS011;30086;57.660;12.000;2023-06-14T01:51:16;1999.90;;;999.90;;
44366;SDS011;30086;57.660;12.000;2023-06-14T01:53:43;1999.90;;;999.90;;
44366;SDS011;30086;57.660;12.000;2023-06-14T01:56:10;1999.90;;;999.90;;
44366;SDS011;30086;57.660;12.000;2023-06-14T01:58:37;1999.90;;;999.90;;
44366;SDS011;30086;57.660;12.000;2023-06-14T02:01:04;1999.90;;;999.90;;
44366;SDS011;30086;57.660;12.000;2023-06-14T02:03:31;1999.90;;;999.90;;
44366;SDS011;30086;57.660;12.000;2023-06-14T02:05:59;1999.90;;;999.90;;
44366;SDS011;30086;57.660;12.000;2023-06-14T02:08:26;1999.90;;;999.90;;
44366;SDS011;30086;57.660;12.000;2023-06-14T02:10:52;1999.90;;;999.90;;
44366;SDS011;30086;57.660;12.000;2023-06-14T02:13:18;1999.90;;;999.90;;
44366;SDS011;30086;57.660;12.000;2023-06-14T02:15:44;1999.90;;;999.90;;
44366;SDS011;30086;57.660;12.000;2023-06-14T02:18:10;1999.90;;;999.90;;
44366;SDS011;30086;57.660;12.000;2023-06-14T02:20:36;1999.90;;;999.90;;
44366;SDS011;30086;57.660;12.000;2023-06-14T02:23:04;1999.90;;;999.90;;
44366;SDS011;30086;57.660;12.000;2023-06-14T02:25:32;1999.90;;;999.90;;
44366;SDS011;30086;57.660;12.000;2023-06-14T02:28:00;1999.90;;;999.90;;
44366;SDS011;30086;57.660;12.000;2023-06-14T02:30:26;1999.90;;;999.90;;
44366;SDS011;30086;57.660;12.000;2023-06-14T02:32:52;1999.90;;;999.90;;
44366;SDS011;30086;57.660;12.000;2023-06-14T02:35:18;1999.90;;;999.90;;
44366;SDS011;30086;57.660;12.000;2023-06-14T02:37:45;1999.90;;;999.90;;
44366;SDS011;30086;57.660;12.000;2023-06-14T02:40:12;1999.90;;;999.90;;
44366;SDS011;30086;57.660;12.000;2023-06-14T02:42:38;1999.90;;;999.90;;
44366;SDS011;30086;57.660;12.000;2023-06-14T02:45:04;1999.90;;;999.90;;
44366;SDS011;30086;57.660;12.000;2023-06-14T02:47:31;1999.90;;;999.90;;
44366;SDS011;30086;57.660;12.000;2023-06-14T02:49:57;1999.90;;;999.90;;
44366;SDS011;30086;57.660;12.000;2023-06-14T02:52:23;1999.90;;;999.90;;
44366;SDS011;30086;57.660;12.000;2023-06-14T02:54:50;1999.90;;;999.90;;
44366;SDS011;30086;57.660;12.000;2023-06-14T02:57:16;1999.90;;;999.90;;
44366;SDS011;30086;57.660;12.000;2023-06-14T02:59:42;1999.90;;;999.90;;
44366;SDS011;30086;57.660;12.000;2023-06-14T03:02:08;1999.90;;;999.90;;
44366;SDS011;30086;57.660;12.000;2023-06-14T03:04:35;1999.90;;;999.90;;
44366;SDS011;30086;57.660;12.000;2023-06-14T03:07:02;1999.90;;;999.90;;
44366;SDS011;30086;57.660;12.000;2023-06-14T03:09:37;1999.90;;;999.90;;
44366;SDS011;30086;57.660;12.000;2023-06-14T03:12:04;1999.90;;;999.90;;
44366;SDS011;30086;57.660;12.000;2023-06-14T03:14:32;1999.90;;;999.90;;
44366;SDS011;30086;57.660;12.000;2023-06-14T03:17:00;1999.90;;;999.90;;
44366;SDS011;30086;57.660;12.000;2023-06-14T03:19:29;1999.90;;;999.90;;
44366;SDS011;30086;57.660;12.000;2023-06-14T03:21:56;1999.90;;;999.90;;
44366;SDS011;30086;57.660;12.000;2023-06-14T03:24:26;1999.90;;;999.90;;
44366;SDS011;30086;57.660;12.000;2023-06-14T03:26:57;1999.90;;;999.90;;
44366;SDS011;30086;57.660;12.000;2023-06-14T03:29:23;1999.90;;;999.90;;
44366;SDS011;30086;57.660;12.000;2023-06-14T03:34:42;1999.90;;;999.90;;
44366;SDS011;30086;57.660;12.000;2023-06-14T03:37:10;1999.90;;;999.90;;
44366;SDS011;30086;57.660;12.000;2023-06-14T03:39:36;1999.90;;;999.90;;
44366;SDS011;30086;57.660;12.000;2023-06-14T03:42:02;1999.90;;;999.90;;
44366;SDS011;30086;57.660;12.000;2023-06-14T03:44:28;1999.90;;;999.90;;
44366;SDS011;30086;57.660;12.000;2023-06-14T03:46:55;1999.90;;;999.90;;
44366;SDS011;30086;57.660;12.000;2023-06-14T03:49:21;1999.90;;;999.90;;
44366;SDS011;30086;57.660;12.000;2023-06-14T03:51:48;1999.90;;;999.90;;
44366;SDS011;30086;57.660;12.000;2023-06-14T03:54:16;1999.90;;;999.90;;
44366;SDS011;30086;57.660;12.000;2023-06-14T03:56:44;1999.90;;;999.90;;
44366;SDS011;30086;57.660;12.000;2023-06-14T03:59:11;1999.90;;;999.90;;
44366;SDS011;30086;57.660;12.000;2023-06-14T04:01:37;1999.90;;;999.90;;
44366;SDS011;30086;57.660;12.000;2023-06-14T04:04:12;1999.90;;;999.90;;
44366;SDS011;30086;57.660;12.000;2023-06-14T04:06:38;1999.90;;;999.90;;
44366;SDS011;30086;57.660;12.000;2023-06-14T04:09:28;1999.90;;;999.90;;
44366;SDS011;30086;57.660;12.000;2023-06-14T04:11:56;1999.90;;;999.90;;
44366;SDS011;30086;57.660;12.000;2023-06-14T04:14:26;1999.90;;;999.90;;
44366;SDS011;30086;57.660;12.000;2023-06-14T04:16:53;1999.90;;;999.90;;
44366;SDS011;30086;57.660;12.000;2023-06-14T04:19:19;1999.90;;;999.90;;
44366;SDS011;30086;57.660;12.000;2023-06-14T04:21:46;1999.90;;;999.90;;
44366;SDS011;30086;57.660;12.000;2023-06-14T04:24:12;1999.90;;;999.90;;
44366;SDS011;30086;57.660;12.000;2023-06-14T04:26:42;1999.90;;;999.90;;
44366;SDS011;30086;57.660;12.000;2023-06-14T04:29:09;1999.90;;;999.90;;
44366;SDS011;30086;57.660;12.000;2023-06-14T04:31:42;1999.90;;;999.90;;
44366;SDS011;30086;57.660;12.000;2023-06-14T04:34:10;1999.90;;;999.90;;
44366;SDS011;30086;57.660;12.000;2023-06-14T04:36:41;1999.90;;;999.90;;
44366;SDS011;30086;57.660;12.000;2023-06-14T04:39:08;1999.90;;;999.90;;
44366;SDS011;30086;57.660;12.000;2023-06-14T04:41:34;1999.90;;;999.90;;
44366;SDS011;30086;57.660;12.000;2023-06-14T04:44:01;1999.90;;;999.90;;
44366;SDS011;30086;57.660;12.000;2023-06-14T04:46:27;1999.90;;;999.90;;
44366;SDS011;30086;57.660;12.000;2023-06-14T04:48:55;1999.90;;;999.90;;
44366;SDS011;30086;57.660;12.000;2023-06-14T04:51:21;1999.90;;;999.90;;
44366;SDS011;30086;57.660;12.000;2023-06-14T04:53:57;1999.90;;;999.90;;
44366;SDS011;30086;57.660;12.000;2023-06-14T04:56:24;1999.90;;;999.90;;
44366;SDS011;30086;57.660;12.000;2023-06-14T04:58:51;1999.90;;;999.90;;
44366;SDS011;30086;57.660;12.000;2023-06-14T05:01:18;1999.90;;;999.90;;
44366;SDS011;30086;57.660;12.000;2023-06-14T05:03:46;1999.90;;;999.90;;
44366;SDS011;30086;57.660;12.000;2023-06-14T05:06:14;1999.90;;;999.90;;
44366;SDS011;30086;57.660;12.000;2023-06-14T05:08:40;1999.90;;;999.90;;
44366;SDS011;30086;57.660;12.000;2023-06-14T05:11:08;1999.90;;;999.90;;
44366;SDS011;30086;57.660;12.000;2023-06-14T05:13:34;1999.90;;;999.90;;
44366;SDS011;30086;57.660;12.000;2023-06-14T05:16:01;1999.90;;;999.90;;
44366;SDS011;30086;57.660;12.000;2023-06-14T05:18:28;1999.90;;;999.90;;
44366;SDS011;30086;57.660;12.000;2023-06-14T05:20:55;1999.90;;;999.90;;
44366;SDS011;30086;57.660;12.000;2023-06-14T05:23:21;1999.90;;;999.90;;
44366;SDS011;30086;57.660;12.000;2023-06-14T05:25:48;1999.90;;;999.90;;
44366;SDS011;30086;57.660;12.000;2023-06-14T05:28:15;1999.90;;;999.90;;
44366;SDS011;30086;57.660;12.000;2023-06-14T05:30:42;1999.90;;;999.90;;
44366;SDS011;30086;57.660;12.000;2023-06-14T05:33:12;1999.90;;;999.90;;
44366;SDS011;30086;57.660;12.000;2023-06-14T05:35:47;1999.90;;;999.90;;
44366;SDS011;30086;57.660;12.000;2023-06-14T05:38:13;1999.90;;;999.90;;
44366;SDS011;30086;57.660;12.000;2023-06-14T05:40:39;1999.90;;;999.90;;
44366;SDS011;30086;57.660;12.000;2023-06-14T05:43:05;1999.90;;;999.90;;
44366;SDS011;30086;57.660;12.000;2023-06-14T05:45:31;1999.90;;;999.90;;
44366;SDS011;30086;57.660;12.000;2023-06-14T05:47:57;1999.90;;;999.90;;
44366;SDS011;30086;57.660;12.000;2023-06-14T05:50:25;1999.90;;;999.90;;
44366;SDS011;30086;57.660;12.000;2023-06-14T05:52:51;1999.90;;;999.90;;
44366;SDS011;30086;57.660;12.000;2023-06-14T05:55:17;1999.90;;;999.90;;
44366;SDS011;30086;57.660;12.000;2023-06-14T05:57:43;1999.90;;;999.90;;
44366;SDS011;30086;57.660;12.000;2023-06-14T06:00:10;1999.90;;;999.90;;
44366;SDS011;30086;57.660;12.000;2023-06-14T06:02:36;1999.90;;;999.90;;
44366;SDS011;30086;57.660;12.000;2023-06-14T06:05:03;1999.90;;;999.90;;
44366;SDS011;30086;57.660;12.000;2023-06-14T06:07:31;1999.90;;;999.90;;
44366;SDS011;30086;57.660;12.000;2023-06-14T06:09:57;1999.90;;;999.90;;
44366;SDS011;30086;57.660;12.000;2023-06-14T06:12:24;1999.90;;;999.90;;
44366;SDS011;30086;57.660;12.000;2023-06-14T06:14:50;1999.90;;;999.90;;
44366;SDS011;30086;57.660;12.000;2023-06-14T06:17:20;1999.90;;;999.90;;
44366;SDS011;30086;57.660;12.000;2023-06-14T06:19:46;1999.90;;;999.90;;
44366;SDS011;30086;57.660;12.000;2023-06-14T06:22:12;1424.22;;;239.23;;
44366;SDS011;30086;57.660;12.000;2023-06-14T06:24:38;1999.90;;;999.90;;
44366;SDS011;30086;57.660;12.000;2023-06-14T06:27:05;1999.90;;;999.90;;
44366;SDS011;30086;57.660;12.000;2023-06-14T06:29:33;1999.90;;;999.90;;
44366;SDS011;30086;57.660;12.000;2023-06-14T06:31:59;1715.43;;;784.20;;
44366;SDS011;30086;57.660;12.000;2023-06-14T06:34:26;1999.90;;;999.90;;
44366;SDS011;30086;57.660;12.000;2023-06-14T06:36:52;1999.90;;;999.90;;
44366;SDS011;30086;57.660;12.000;2023-06-14T06:39:18;1818.72;;;267.77;;
44366;SDS011;30086;57.660;12.000;2023-06-14T06:41:44;1999.90;;;999.90;;
44366;SDS011;30086;57.660;12.000;2023-06-14T06:44:10;1999.90;;;999.90;;
44366;SDS011;30086;57.660;12.000;2023-06-14T06:46:37;1999.90;;;999.90;;
44366;SDS011;30086;57.660;12.000;2023-06-14T06:49:05;1999.90;;;999.90;;
44366;SDS011;30086;57.660;12.000;2023-06-14T06:51:31;1999.90;;;999.90;;
44366;SDS011;30086;57.660;12.000;2023-06-14T06:53:58;1999.90;;;999.90;;
44366;SDS011;30086;57.660;12.000;2023-06-14T06:56:25;1999.90;;;999.90;;
44366;SDS011;30086;57.660;12.000;2023-06-14T06:58:51;1067.07;;;516.92;;
44366;SDS011;30086;57.660;12.000;2023-06-14T07:01:17;1999.90;;;999.90;;
44366;SDS011;30086;57.660;12.000;2023-06-14T07:03:44;1999.90;;;999.90;;
44366;SDS011;30086;57.660;12.000;2023-06-14T07:06:11;1999.90;;;999.90;;
44366;SDS011;30086;57.660;12.000;2023-06-14T07:08:37;1999.90;;;999.90;;
44366;SDS011;30086;57.660;12.000;2023-06-14T07:11:05;1999.90;;;999.90;;
44366;SDS011;30086;57.660;12.000;2023-06-14T07:13:32;1999.90;;;999.90;;
44366;SDS011;30086;57.660;12.000;2023-06-14T07:15:59;1999.90;;;999.90;;
44366;SDS011;30086;57.660;12.000;2023-06-14T07:18:25;1999.90;;;999.90;;
44366;SDS011;30086;57.660;12.000;2023-06-14T07:20:52;1999.90;;;999.90;;
44366;SDS011;30086;57.660;12.000;2023-06-14T07:23:19;1999.90;;;999.90;;
44366;SDS011;30086;57.660;12.000;2023-06-14T07:25:45;1999.90;;;999.90;;
44366;SDS011;30086;57.660;12.000;2023-06-14T07:28:11;1999.90;;;999.90;;
44366;SDS011;30086;57.660;12.000;2023-06-14T07:30:38;1999.90;;;999.90;;
44366;SDS011;30086;57.660;12.000;2023-06-14T07:33:05;1999.90;;;999.90;;
44366;SDS011;30086;57.660;12.000;2023-06-14T07:35:31;1999.90;;;999.90;;
44366;SDS011;30086;57.660;12.000;2023-06-14T07:37:57;1999.90;;;999.90;;
44366;SDS011;30086;57.660;12.000;2023-06-14T07:40:23;1999.90;;;999.90;;
44366;SDS011;30086;57.660;12.000;2023-06-14T07:42:49;1999.90;;;999.90;;
44366;SDS011;30086;57.660;12.000;2023-06-14T07:45:15;1999.90;;;999.90;;
44366;SDS011;30086;57.660;12.000;2023-06-14T07:47:42;1999.90;;;999.90;;
44366;SDS011;30086;57.660;12.000;2023-06-14T07:50:08;1999.90;;;999.90;;
44366;SDS011;30086;57.660;12.000;2023-06-14T07:52:35;1999.90;;;999.90;;
44366;SDS011;30086;57.660;12.000;2023-06-14T07:55:01;1999.90;;;999.90;;
44366;SDS011;30086;57.660;12.000;2023-06-14T07:57:27;1999.90;;;999.90;;
44366;SDS011;30086;57.660;12.000;2023-06-14T07:59:53;1999.90;;;999.90;;
44366;SDS011;30086;57.660;12.000;2023-06-14T08:02:19;1999.90;;;999.90;;
44366;SDS011;30086;57.660;12.000;2023-06-14T08:04:45;1999.90;;;999.90;;
44366;SDS011;30086;57.660;12.000;2023-06-14T08:07:13;1999.90;;;999.90;;
44366;SDS011;30086;57.660;12.000;2023-06-14T08:09:40;1999.90;;;999.90;;
44366;SDS011;30086;57.660;12.000;2023-06-14T08:12:08;1999.90;;;999.90;;
44366;SDS011;30086;57.660;12.000;2023-06-14T08:14:41;1999.90;;;999.90;;
44366;SDS011;30086;57.660;12.000;2023-06-14T08:17:07;1999.90;;;999.90;;
44366;SDS011;30086;57.660;12.000;2023-06-14T08:19:34;1999.90;;;999.90;;
44366;SDS011;30086;57.660;12.000;2023-06-14T08:22:00;1999.90;;;999.90;;
44366;SDS011;30086;57.660;12.000;2023-06-14T08:24:26;1999.90;;;999.90;;
44366;SDS011;30086;57.660;12.000;2023-06-14T08:26:53;1999.90;;;999.90;;
44366;SDS011;30086;57.660;12.000;2023-06-14T08:29:19;1112.22;;;540.38;;
44366;SDS011;30086;57.660;12.000;2023-06-14T08:31:46;1999.90;;;999.90;;
44366;SDS011;30086;57.660;12.000;2023-06-14T08:34:13;1999.90;;;999.90;;
44366;SDS011;30086;57.660;12.000;2023-06-14T08:36:39;1999.90;;;999.90;;
44366;SDS011;30086;57.660;12.000;2023-06-14T08:39:06;1999.90;;;999.90;;
44366;SDS011;30086;57.660;12.000;2023-06-14T08:41:34;1999.90;;;999.90;;
44366;SDS011;30086;57.660;12.000;2023-06-14T08:44:00;1999.90;;;999.90;;
44366;SDS011;30086;57.660;12.000;2023-06-14T08:46:26;1999.90;;;999.90;;
44366;SDS011;30086;57.660;12.000;2023-06-14T08:48:55;1999.90;;;999.90;;
44366;SDS011;30086;57.660;12.000;2023-06-14T08:51:25;1999.90;;;999.90;;
44366;SDS011;30086;57.660;12.000;2023-06-14T08:53:59;1949.82;;;658.30;;
44366;SDS011;30086;57.660;12.000;2023-06-14T08:56:29;1999.90;;;999.90;;
44366;SDS011;30086;57.660;12.000;2023-06-14T08:58:59;1623.82;;;246.27;;
44366;SDS011;30086;57.660;12.000;2023-06-14T09:01:33;1999.90;;;795.05;;
44366;SDS011;30086;57.660;12.000;2023-06-14T09:03:59;1999.90;;;999.90;;
44366;SDS011;30086;57.660;12.000;2023-06-14T09:06:27;933.17;;;152.95;;
44366;SDS011;30086;57.660;12.000;2023-06-14T09:08:54;1999.90;;;352.17;;
44366;SDS011;30086;57.660;12.000;2023-06-14T09:11:23;1999.90;;;181.55;;
44366;SDS011;30086;57.660;12.000;2023-06-14T09:13:51;29.45;;;11.23;;
44366;SDS011;30086;57.660;12.000;2023-06-14T09:16:18;1652.60;;;293.35;;
44366;SDS011;30086;57.660;12.000;2023-06-14T09:18:45;1288.53;;;137.38;;
44366;SDS011;30086;57.660;12.000;2023-06-14T09:21:13;1472.63;;;282.20;;
44366;SDS011;30086;57.660;12.000;2023-06-14T09:23:40;550.38;;;104.25;;
44366;SDS011;30086;57.660;12.000;2023-06-14T09:26:07;1999.90;;;277.98;;
44366;SDS011;30086;57.660;12.000;2023-06-14T09:28:33;1093.60;;;117.70;;
44366;SDS011;30086;57.660;12.000;2023-06-14T09:31:01;928.00;;;359.33;;
44366;SDS011;30086;57.660;12.000;2023-06-14T09:33:27;739.92;;;209.10;;
44366;SDS011;30086;57.660;12.000;2023-06-14T09:35:54;158.98;;;23.38;;
44366;SDS011;30086;57.660;12.000;2023-06-14T09:38:20;622.17;;;72.95;;
44366;SDS011;30086;57.660;12.000;2023-06-14T09:40:46;1527.00;;;324.50;;
44366;SDS011;30086;57.660;12.000;2023-06-14T09:43:12;1999.90;;;496.33;;
44366;SDS011;30086;57.660;12.000;2023-06-14T09:45:39;1687.60;;;376.70;;
44366;SDS011;30086;57.660;12.000;2023-06-14T09:48:06;1160.78;;;150.98;;
44366;SDS011;30086;57.660;12.000;2023-06-14T09:50:33;1999.90;;;999.90;;
44366;SDS011;30086;57.660;12.000;2023-06-14T09:53:05;646.63;;;105.22;;
44366;SDS011;30086;57.660;12.000;2023-06-14T09:55:34;620.10;;;104.60;;
44366;SDS011;30086;57.660;12.000;2023-06-14T09:58:00;453.13;;;69.53;;
44366;SDS011;30086;57.660;12.000;2023-06-14T10:00:31;1964.30;;;575.90;;
44366;SDS011;30086;57.660;12.000;2023-06-14T10:03:00;810.92;;;125.05;;
44366;SDS011;30086;57.660;12.000;2023-06-14T10:05:28;175.60;;;21.98;;
44366;SDS011;30086;57.660;12.000;2023-06-14T10:08:04;1999.90;;;999.90;;
44366;SDS011;30086;57.660;12.000;2023-06-14T10:10:38;1397.88;;;553.40;;
44366;SDS011;30086;57.660;12.000;2023-06-14T10:13:06;1069.53;;;128.90;;
44366;SDS011;30086;57.660;12.000;2023-06-14T10:15:35;866.40;;;194.23;;
44366;SDS011;30086;57.660;12.000;2023-06-14T10:18:24;614.50;;;137.95;;
44366;SDS011;30086;57.660;12.000;2023-06-14T10:23:22;1589.13;;;433.42;;
44366;SDS011;30086;57.660;12.000;2023-06-14T10:25:57;1004.45;;;132.55;;
44366;SDS011;30086;57.660;12.000;2023-06-14T10:28:25;1019.85;;;126.15;;
44366;SDS011;30086;57.660;12.000;2023-06-14T10:31:26;8.20;;;4.60;;
44366;SDS011;30086;57.660;12.000;2023-06-14T10:33:48;1450.82;;;191.10;;
44366;SDS011;30086;57.660;12.000;2023-06-14T10:41:28;1999.90;;;999.90;;
44366;SDS011;30086;57.660;12.000;2023-06-14T10:46:45;1265.13;;;120.22;;
44366;SDS011;30086;57.660;12.000;2023-06-14T10:49:17;1649.15;;;232.25;;
44366;SDS011;30086;57.660;12.000;2023-06-14T10:51:49;543.58;;;39.88;;
44366;SDS011;30086;57.660;12.000;2023-06-14T10:54:16;177.48;;;19.63;;
44366;SDS011;30086;57.660;12.000;2023-06-14T10:59:13;1751.35;;;554.50;;
44366;SDS011;30086;57.660;12.000;2023-06-14T11:02:05;1999.90;;;999.90;;
44366;SDS011;30086;57.660;12.000;2023-06-14T11:04:47;899.60;;;269.63;;
44366;SDS011;30086;57.660;12.000;2023-06-14T11:12:43;966.75;;;83.65;;
44366;SDS011;30086;57.660;12.000;2023-06-14T11:15:11;1068.57;;;99.75;;
44366;SDS011;30086;57.660;12.000;2023-06-14T11:17:38;1999.90;;;999.90;;
44366;SDS011;30086;57.660;12.000;2023-06-14T11:20:08;1999.90;;;999.90;;
44366;SDS011;30086;57.660;12.000;2023-06-14T11:22:43;1999.90;;;999.90;;
44366;SDS011;30086;57.660;12.000;2023-06-14T11:25:10;421.13;;;113.60;;
44366;SDS011;30086;57.660;12.000;2023-06-14T11:27:36;1635.05;;;769.70;;
44366;SDS011;30086;57.660;12.000;2023-06-14T11:30:06;1999.90;;;999.90;;
44366;SDS011;30086;57.660;12.000;2023-06-14T11:32:33;1956.63;;;687.70;;
44366;SDS011;30086;57.660;12.000;2023-06-14T11:34:59;616.65;;;196.52;;
44366;SDS011;30086;57.660;12.000;2023-06-14T11:37:27;744.42;;;231.77;;
44366;SDS011;30086;57.660;12.000;2023-06-14T11:39:56;900.05;;;302.58;;
44366;SDS011;30086;57.660;12.000;2023-06-14T11:42:22;1999.90;;;999.90;;
44366;SDS011;30086;57.660;12.000;2023-06-14T11:44:49;1999.90;;;999.90;;
44366;SDS011;30086;57.660;12.000;2023-06-14T11:47:15;1999.90;;;999.90;;
44366;SDS011;30086;57.660;12.000;2023-06-14T11:49:55;1999.90;;;999.90;;
44366;SDS011;30086;57.660;12.000;2023-06-14T11:52:21;1999.90;;;999.90;;
44366;SDS011;30086;57.660;12.000;2023-06-14T11:54:52;1999.90;;;999.90;;
44366;SDS011;30086;57.660;12.000;2023-06-14T11:57:18;1999.90;;;999.90;;
44366;SDS011;30086;57.660;12.000;2023-06-14T11:59:44;1999.90;;;999.90;;
44366;SDS011;30086;57.660;12.000;2023-06-14T12:02:15;1832.57;;;358.10;;
44366;SDS011;30086;57.660;12.000;2023-06-14T12:04:41;1999.90;;;999.90;;
44366;SDS011;30086;57.660;12.000;2023-06-14T12:07:08;1999.90;;;812.55;;
44366;SDS011;30086;57.660;12.000;2023-06-14T12:09:36;186.88;;;48.47;;
44366;SDS011;30086;57.660;12.000;2023-06-14T12:12:03;320.92;;;80.30;;
44366;SDS011;30086;57.660;12.000;2023-06-14T12:14:30;1470.75;;;530.00;;
44366;SDS011;30086;57.660;12.000;2023-06-14T12:17:03;1999.90;;;654.15;;
44366;SDS011;30086;57.660;12.000;2023-06-14T12:19:31;1999.90;;;265.35;;
44366;SDS011;30086;57.660;12.000;2023-06-14T12:21:59;1710.43;;;776.22;;
44366;SDS011;30086;57.660;12.000;2023-06-14T12:24:31;824.83;;;229.30;;
44366;SDS011;30086;57.660;12.000;2023-06-14T12:26:58;1694.55;;;552.78;;
44366;SDS011;30086;57.660;12.000;2023-06-14T12:29:43;1038.75;;;308.90;;
44366;SDS011;30086;57.660;12.000;2023-06-14T12:32:10;220.45;;;76.63;;
44366;SDS011;30086;57.660;12.000;2023-06-14T12:34:36;6.80;;;2.45;;
44366;SDS011;30086;57.660;12.000;2023-06-14T12:37:02;1999.90;;;999.90;;
44366;SDS011;30086;57.660;12.000;2023-06-14T12:39:29;938.13;;;389.45;;
44366;SDS011;30086;57.660;12.000;2023-06-14T12:42:15;1723.90;;;802.50;;
44366;SDS011;30086;57.660;12.000;2023-06-14T12:44:42;642.42;;;235.10;;
44366;SDS011;30086;57.660;12.000;2023-06-14T12:47:09;1999.90;;;999.90;;
44366;SDS011;30086;57.660;12.000;2023-06-14T12:49:35;1999.90;;;188.18;;
44366;SDS011;30086;57.660;12.000;2023-06-14T12:52:01;106.20;;;15.85;;
44366;SDS011;30086;57.660;12.000;2023-06-14T12:54:27;75.93;;;14.05;;
44366;SDS011;30086;57.660;12.000;2023-06-14T12:56:53;1282.10;;;459.15;;
44366;SDS011;30086;57.660;12.000;2023-06-14T12:59:20;1999.90;;;635.65;;
44366;SDS011;30086;57.660;12.000;2023-06-14T13:01:46;1143.50;;;339.40;;
44366;SDS011;30086;57.660;12.000;2023-06-14T13:04:15;1999.90;;;999.90;;
44366;SDS011;30086;57.660;12.000;2023-06-14T13:06:43;1999.90;;;999.90;;
44366;SDS011;30086;57.660;12.000;2023-06-14T13:09:09;1999.90;;;999.90;;
44366;SDS011;30086;57.660;12.000;2023-06-14T13:11:42;581.08;;;158.48;;
44366;SDS011;30086;57.660;12.000;2023-06-14T13:14:12;1999.90;;;999.90;;
44366;SDS011;30086;57.660;12.000;2023-06-14T13:16:38;947.47;;;306.20;;
44366;SDS011;30086;57.660;12.000;2023-06-14T13:19:05;6.03;;;1.92;;
44366;SDS011;30086;57.660;12.000;2023-06-14T13:21:43;1999.90;;;999.90;;
44366;SDS011;30086;57.660;12.000;2023-06-14T13:24:10;1999.90;;;999.90;;
44366;SDS011;30086;57.660;12.000;2023-06-14T13:26:44;1447.38;;;438.73;;
44366;SDS011;30086;57.660;12.000;2023-06-14T13:29:11;1999.90;;;999.90;;
44366;SDS011;30086;57.660;12.000;2023-06-14T13:31:37;30.50;;;8.80;;
44366;SDS011;30086;57.660;12.000;2023-06-14T13:34:03;599.70;;;171.98;;
44366;SDS011;30086;57.660;12.000;2023-06-14T13:36:30;316.95;;;160.88;;
44366;SDS011;30086;57.660;12.000;2023-06-14T13:38:56;1010.28;;;310.58;;
44366;SDS011;30086;57.660;12.000;2023-06-14T13:41:25;8.02;;;4.57;;
44366;SDS011;30086;57.660;12.000;2023-06-14T13:43:58;42.13;;;25.65;;
44366;SDS011;30086;57.660;12.000;2023-06-14T13:46:25;938.13;;;431.67;;
44366;SDS011;30086;57.660;12.000;2023-06-14T13:48:52;946.20;;;212.45;;
44366;SDS011;30086;57.660;12.000;2023-06-14T13:51:19;1262.70;;;379.08;;
44366;SDS011;30086;57.660;12.000;2023-06-14T13:53:46;412.08;;;116.35;;
44366;SDS011;30086;57.660;12.000;2023-06-14T13:56:12;1400.88;;;500.65;;
44366;SDS011;30086;57.660;12.000;2023-06-14T13:58:39;777.70;;;217.00;;
44366;SDS011;30086;57.660;12.000;2023-06-14T14:01:06;81.15;;;17.73;;
44366;SDS011;30086;57.660;12.000;2023-06-14T14:03:33;304.00;;;68.80;;
44366;SDS011;30086;57.660;12.000;2023-06-14T14:06:03;8.35;;;3.50;;